Time;durP1;ratioP1;P1;durP2;ratioP2;P2;SDS_P1;SDS_P2;PMS_P1;PMS_P2;Temp;Humidity;BMP_temperature;BMP_pressure;BME280_temperature;BME280_humidity;BME280_pressure;Samples;Min_cycle;Max_cycle;Signal;HPM_P1;HPM_P2
2023/10/05 00:00:36;;;;;;;3;2.1;;;;;;;;;;;;;
2023/10/05 00:02:29;;;;;;;2.9;2.1;;;;;;;;;;;;;
2023/10/05 00:04:53;;;;;;;3.5;2.3;;;;;;;;;;;;;
2023/10/05 00:07:23;;;;;;;3.7;2.1;;;;;;;;;;;;;
2023/10/05 00:09:43;;;;;;;4.8;2.2;;;;;;;;;;;;;
2023/10/05 00:12:18;;;;;;;3.6;2.2;;;;;;;;;;;;;
2023/10/05 00:14:37;;;;;;;4.6;2.2;;;;;;;;;;;;;
2023/10/05 00:17:00;;;;;;;3;2;;;;;;;;;;;;;
2023/10/05 00:19:31;;;;;;;4.9;2.2;;;;;;;;;;;;;
2023/10/05 00:21:51;;;;;;;3.1;2.4;;;;;;;;;;;;;
2023/10/05 00:24:18;;;;;;;4;2.1;;;;;;;;;;;;;
2023/10/05 00:26:43;;;;;;;4.3;2.3;;;;;;;;;;;;;
2023/10/05 00:29:15;;;;;;;4.8;2.5;;;;;;;;;;;;;
2023/10/05 00:31:38;;;;;;;3.6;2.2;;;;;;;;;;;;;
2023/10/05 00:33:58;;;;;;;5.1;2.4;;;;;;;;;;;;;
2023/10/05 00:36:24;;;;;;;3.8;2.1;;;;;;;;;;;;;
2023/10/05 00:38:48;;;;;;;3.9;2;;;;;;;;;;;;;
2023/10/05 00:41:14;;;;;;;3.9;2.8;;;;;;;;;;;;;
2023/10/05 00:43:40;;;;;;;3.5;2.1;;;;;;;;;;;;;
2023/10/05 00:46:08;;;;;;;4.5;2.2;;;;;;;;;;;;;
2023/10/05 00:48:34;;;;;;;3.8;2.3;;;;;;;;;;;;;
2023/10/05 00:50:59;;;;;;;3.1;2.1;;;;;;;;;;;;;
2023/10/05 00:53:24;;;;;;;3;2.2;;;;;;;;;;;;;
2023/10/05 00:55:51;;;;;;;4.5;2.2;;;;;;;;;;;;;
2023/10/05 00:58:17;;;;;;;3.1;2.1;;;;;;;;;;;;;
2023/10/05 01:00:50;;;;;;;3.5;1.9;;;;;;;;;;;;;
2023/10/05 01:03:22;;;;;;;3.3;2.1;;;;;;;;;;;;;
2023/10/05 01:05:47;;;;;;;3;2;;;;;;;;;;;;;
2023/10/05 01:08:04;;;;;;;6.6;2.4;;;;;;;;;;;;;
2023/10/05 01:10:40;;;;;;;2.6;1.8;;;;;;;;;;;;;
2023/10/05 01:12:50;;;;;;;3.9;2.2;;;;;;;;;;;;;
2023/10/05 01:15:16;;;;;;;4.2;2.2;;;;;;;;;;;;;
2023/10/05 01:17:42;;;;;;;4.9;2.1;;;;;;;;;;;;;
2023/10/05 01:20:11;;;;;;;3.6;2;;;;;;;;;;;;;
2023/10/05 01:22:36;;;;;;;4.4;2;;;;;;;;;;;;;
2023/10/05 01:25:04;;;;;;;2.9;2;;;;;;;;;;;;;
2023/10/05 01:27:29;;;;;;;3.5;2.1;;;;;;;;;;;;;
2023/10/05 01:29:50;;;;;;;3.5;2;;;;;;;;;;;;;
2023/10/05 01:32:18;;;;;;;3.3;1.7;;;;;;;;;;;;;
2023/10/05 01:34:42;;;;;;;3.8;1.9;;;;;;;;;;;;;
2023/10/05 01:37:08;;;;;;;4.2;2;;;;;;;;;;;;;
2023/10/05 01:39:40;;;;;;;2.4;1.9;;;;;;;;;;;;;
2023/10/05 01:41:59;;;;;;;3.4;2;;;;;;;;;;;;;
2023/10/05 01:44:25;;;;;;;3.2;2;;;;;;;;;;;;;
2023/10/05 01:46:49;;;;;;;2.3;1.8;;;;;;;;;;;;;
2023/10/05 01:49:19;;;;;;;4.3;2.1;;;;;;;;;;;;;
2023/10/05 01:51:43;;;;;;;3.9;2.1;;;;;;;;;;;;;
2023/10/05 01:54:11;;;;;;;3.5;2;;;;;;;;;;;;;
2023/10/05 01:56:34;;;;;;;3;2.1;;;;;;;;;;;;;
2023/10/05 01:59:03;;;;;;;3.5;1.9;;;;;;;;;;;;;
2023/10/05 02:01:28;;;;;;;3.5;2.1;;;;;;;;;;;;;
2023/10/05 02:03:53;;;;;;;3.9;2.3;;;;;;;;;;;;;
2023/10/05 02:06:16;;;;;;;3.1;1.8;;;;;;;;;;;;;
2023/10/05 02:08:42;;;;;;;4.2;2.3;;;;;;;;;;;;;
2023/10/05 02:11:09;;;;;;;3;2.2;;;;;;;;;;;;;
2023/10/05 02:13:34;;;;;;;4;2.3;;;;;;;;;;;;;
2023/10/05 02:15:59;;;;;;;2.9;1.9;;;;;;;;;;;;;
2023/10/05 02:18:26;;;;;;;4.7;2.3;;;;;;;;;;;;;
2023/10/05 02:20:52;;;;;;;4.2;2.1;;;;;;;;;;;;;
2023/10/05 02:23:25;;;;;;;4;2.1;;;;;;;;;;;;;
2023/10/05 02:25:39;;;;;;;3.7;2;;;;;;;;;;;;;
2023/10/05 02:28:04;;;;;;;3.5;2.1;;;;;;;;;;;;;
2023/10/05 02:30:31;;;;;;;3.4;2.1;;;;;;;;;;;;;
2023/10/05 02:32:54;;;;;;;3.3;2.2;;;;;;;;;;;;;
2023/10/05 02:35:24;;;;;;;3.7;2.3;;;;;;;;;;;;;
2023/10/05 02:37:47;;;;;;;3.7;2.2;;;;;;;;;;;;;
2023/10/05 02:40:12;;;;;;;3.7;2;;;;;;;;;;;;;
2023/10/05 02:42:35;;;;;;;3.4;1.9;;;;;;;;;;;;;
2023/10/05 02:45:03;;;;;;;3.1;2.3;;;;;;;;;;;;;
2023/10/05 02:47:26;;;;;;;3.1;2.2;;;;;;;;;;;;;
2023/10/05 02:49:52;;;;;;;4.8;2.4;;;;;;;;;;;;;
2023/10/05 02:52:17;;;;;;;4.2;2.3;;;;;;;;;;;;;
2023/10/05 02:54:43;;;;;;;3.9;2.3;;;;;;;;;;;;;
2023/10/05 02:57:10;;;;;;;4.1;2;;;;;;;;;;;;;
2023/10/05 02:59:34;;;;;;;3.6;2.1;;;;;;;;;;;;;
2023/10/05 03:02:03;;;;;;;3.1;1.8;;;;;;;;;;;;;
2023/10/05 03:04:31;;;;;;;2.7;2.1;;;;;;;;;;;;;
2023/10/05 03:06:52;;;;;;;4.4;2.4;;;;;;;;;;;;;
2023/10/05 03:09:14;;;;;;;3.3;2.1;;;;;;;;;;;;;
2023/10/05 03:11:40;;;;;;;3.6;2.1;;;;;;;;;;;;;
2023/10/05 03:14:05;;;;;;;3.8;2.2;;;;;;;;;;;;;
2023/10/05 03:16:30;;;;;;;4.1;2.1;;;;;;;;;;;;;
2023/10/05 03:18:55;;;;;;;4.2;2.3;;;;;;;;;;;;;
2023/10/05 03:21:21;;;;;;;3.1;2;;;;;;;;;;;;;
2023/10/05 03:23:46;;;;;;;4.6;2.3;;;;;;;;;;;;;
2023/10/05 03:26:13;;;;;;;3.5;2.5;;;;;;;;;;;;;
2023/10/05 03:28:37;;;;;;;3.5;2.1;;;;;;;;;;;;;
2023/10/05 03:31:07;;;;;;;3.2;2.3;;;;;;;;;;;;;
2023/10/05 03:33:30;;;;;;;4;2.4;;;;;;;;;;;;;
2023/10/05 03:35:57;;;;;;;3.6;1.9;;;;;;;;;;;;;
2023/10/05 03:38:22;;;;;;;3.8;2.2;;;;;;;;;;;;;
2023/10/05 03:40:44;;;;;;;2.9;2.1;;;;;;;;;;;;;
2023/10/05 03:43:11;;;;;;;3.4;2.3;;;;;;;;;;;;;
2023/10/05 03:45:34;;;;;;;4.2;2.1;;;;;;;;;;;;;
2023/10/05 03:48:01;;;;;;;2.9;2.3;;;;;;;;;;;;;
2023/10/05 03:50:25;;;;;;;3.2;2;;;;;;;;;;;;;
2023/10/05 03:52:53;;;;;;;3;2.2;;;;;;;;;;;;;
2023/10/05 03:55:18;;;;;;;3.6;2.4;;;;;;;;;;;;;
2023/10/05 03:57:42;;;;;;;2.8;1.8;;;;;;;;;;;;;
2023/10/05 04:02:31;;;;;;;3.2;1.9;;;;;;;9.83;94.43066;946.1938;;;;
2023/10/05 04:04:58;;;;;;;2.5;1.8;;;;;;;9.83;94.0166;946.1228;;;;
2023/10/05 04:07:22;;;;;;;2.5;1.8;;;;;;;9.78;94.08691;946.1158;;;;
2023/10/05 04:09:47;;;;;;;3.7;2.2;;;;;;;9.68;94.47754;945.9988;;;;
2023/10/05 04:12:14;;;;;;;61.6;28.9;;;;;;;9.68;94.31738;946.0267;;;;
2023/10/05 04:14:39;;;;;;;77;36.6;;;;;;;9.65;94.13867;945.9479;;;;
2023/10/05 04:17:11;;;;;;;13.4;7.9;;;;;;;9.44;95.23242;946.0322;;;;
2023/10/05 04:19:31;;;;;;;8.4;7.5;;;;;;;9.39;95.9375;946.0432;;;;
2023/10/05 04:21:56;;;;;;;3.8;2.7;;;;;;;9.33;96.42676;945.994;;;;
2023/10/05 04:24:23;;;;;;;2.6;2.3;;;;;;;9.3;96.97656;946.0034;;;;
2023/10/05 04:26:48;;;;;;;4.7;2.9;;;;;;;9.3;97.0127;946.0347;;;;
2023/10/05 04:29:14;;;;;;;3.5;2.3;;;;;;;9.36;96.6377;946.0234;;;;
2023/10/05 04:31:40;;;;;;;3.5;2.2;;;;;;;9.46;95.9541;946.0669;;;;
2023/10/05 04:34:11;;;;;;;3.6;2.6;;;;;;;9.34;95.89355;946.0276;;;;
2023/10/05 04:36:31;;;;;;;2.8;2;;;;;;;9.34;96.54297;946.0959;;;;
2023/10/05 04:38:56;;;;;;;3.8;2.3;;;;;;;9.29;96.89648;946.0106;;;;
2023/10/05 04:41:28;;;;;;;3.5;2.2;;;;;;;9.33;97.15527;946.0639;;;;
2023/10/05 04:43:50;;;;;;;3.6;2.5;;;;;;;9.39;97.11035;945.9733;;;;
2023/10/05 04:46:19;;;;;;;3.5;2.2;;;;;;;9.41;97.28613;946.0151;;;;
2023/10/05 04:48:48;;;;;;;2.8;2.2;;;;;;;9.48;97.00781;946.0204;;;;
2023/10/05 04:51:07;;;;;;;3.5;2.2;;;;;;;9.5;97.20313;946.1116;;;;
2023/10/05 04:53:38;;;;;;;4.6;2.4;;;;;;;9.57;96.85547;946.0681;;;;
2023/10/05 04:56:12;;;;;;;4.2;2;;;;;;;9.54;96.51855;946.1102;;;;
2023/10/05 04:58:53;;;;;;;3.5;2.2;;;;;;;9.54;96.64453;946.1541;;;;
2023/10/05 05:01:15;;;;;;;3.9;2.2;;;;;;;9.44;97.38477;946.1728;;;;
2023/10/05 05:03:48;;;;;;;3.2;2.4;;;;;;;9.39;97.50977;946.168;;;;
2023/10/05 05:06:08;;;;;;;4.1;2.7;;;;;;;9.36;97.27539;946.0607;;;;
2023/10/05 05:08:16;;;;;;;4.6;2.8;;;;;;;9.39;97.09961;946.1291;;;;
2023/10/05 05:10:42;;;;;;;5.9;2.8;;;;;;;9.42;96.18262;946.1469;;;;
2023/10/05 05:13:10;;;;;;;4.5;2.7;;;;;;;9.3;95.86133;946.0703;;;;
2023/10/05 05:15:38;;;;;;;3.3;2.5;;;;;;;9.28;96.15527;945.957;;;;
2023/10/05 05:18:00;;;;;;;4.1;2.4;;;;;;;9.35;96.20313;945.9755;;;;
2023/10/05 05:20:26;;;;;;;5.5;3.6;;;;;;;9.38;95.61914;946.0399;;;;
2023/10/05 05:22:50;;;;;;;5.3;4;;;;;;;9.21;96.2959;946.0277;;;;
2023/10/05 05:25:19;;;;;;;4.5;2.3;;;;;;;9.18;96.85938;946.0089;;;;
2023/10/05 05:27:45;;;;;;;3.3;2.3;;;;;;;9.21;97.3457;946.0211;;;;
2023/10/05 05:30:19;;;;;;;5.3;2.3;;;;;;;9.2;99.24219;945.9861;;;;
2023/10/05 05:32:32;;;;;;;4.8;2.5;;;;;;;9.18;99.04492;945.9697;;;;
2023/10/05 05:35:02;;;;;;;2.9;2.2;;;;;;;9.35;97.86523;946.0406;;;;
2023/10/05 05:37:28;;;;;;;4.1;2.3;;;;;;;9.4;97.42188;946.0714;;;;
2023/10/05 05:39:54;;;;;;;4.2;2.2;;;;;;;9.39;97.65723;946.0846;;;;
2023/10/05 05:42:19;;;;;;;5.4;2.5;;;;;;;9.48;97.53223;946.1404;;;;
2023/10/05 05:44:45;;;;;;;2.8;2;;;;;;;9.57;97.19727;946.1652;;;;
2023/10/05 05:47:10;;;;;;;6;2.5;;;;;;;9.63;96.69824;946.1845;;;;
2023/10/05 05:49:36;;;;;;;4.7;2.7;;;;;;;9.71;96.7168;946.2899;;;;
2023/10/05 05:52:02;;;;;;;3.4;2.2;;;;;;;9.82;95.93164;946.2196;;;;
2023/10/05 05:54:31;;;;;;;4;2.3;;;;;;;9.9;95.77637;946.2375;;;;
2023/10/05 05:56:54;;;;;;;3.9;2.2;;;;;;;9.86;95.72363;946.2556;;;;
2023/10/05 05:59:22;;;;;;;4.2;2.5;;;;;;;9.97;95.4873;946.272;;;;
2023/10/05 06:01:46;;;;;;;4.1;2.4;;;;;;;10.2;95.61719;946.3286;;;;
2023/10/05 06:04:13;;;;;;;4.2;2.4;;;;;;;10.4;94.64648;946.2814;;;;
2023/10/05 06:06:38;;;;;;;6.8;2.7;;;;;;;10.65;94.06055;946.3417;;;;
2023/10/05 06:09:07;;;;;;;3.3;2.3;;;;;;;10.75;92.00488;946.3599;;;;
2023/10/05 06:11:31;;;;;;;3.8;2.1;;;;;;;10.85;91.29102;946.3892;;;;
2023/10/05 06:13:58;;;;;;;6.2;2.3;;;;;;;11.06;90.99609;946.3894;;;;
2023/10/05 06:16:22;;;;;;;5.6;3.1;;;;;;;11.27;89.72461;946.3045;;;;
2023/10/05 06:18:48;;;;;;;9.5;4.4;;;;;;;11.28;88.23926;946.2967;;;;
2023/10/05 06:21:13;;;;;;;11.2;5.5;;;;;;;11.23;88.38867;946.3212;;;;
2023/10/05 06:23:40;;;;;;;12.4;7.1;;;;;;;11.25;88.54199;946.3097;;;;
2023/10/05 06:26:06;;;;;;;9.5;5.3;;;;;;;11.26;88.61133;946.3784;;;;
2023/10/05 06:28:34;;;;;;;9.7;5.1;;;;;;;11.21;88.76367;946.3026;;;;
2023/10/05 06:30:59;;;;;;;31.5;16.3;;;;;;;11.28;89.08594;946.2849;;;;
2023/10/05 06:33:26;;;;;;;8.8;3.9;;;;;;;11.29;88.72168;946.3831;;;;
2023/10/05 06:35:51;;;;;;;6.1;2.8;;;;;;;11.27;89.65527;946.3276;;;;
2023/10/05 06:38:16;;;;;;;4.6;2.5;;;;;;;11.36;89.4209;946.2073;;;;
2023/10/05 06:40:41;;;;;;;5.2;2.6;;;;;;;11.35;89.52148;946.2478;;;;
2023/10/05 06:43:07;;;;;;;6.3;2.8;;;;;;;11.41;89.50098;946.2317;;;;
2023/10/05 06:45:32;;;;;;;5.1;2.5;;;;;;;11.52;89.18164;946.2578;;;;
2023/10/05 06:47:58;;;;;;;4;2.2;;;;;;;11.6;89.40234;946.335;;;;
2023/10/05 06:50:23;;;;;;;4.6;2.4;;;;;;;11.79;88.58496;946.2137;;;;
2023/10/05 06:52:52;;;;;;;14.2;4.1;;;;;;;11.86;88.81543;946.2336;;;;
2023/10/05 06:55:17;;;;;;;2.6;2;;;;;;;11.86;88.76953;946.1019;;;;
2023/10/05 06:57:43;;;;;;;4.1;2.6;;;;;;;11.99;88.10742;946.1934;;;;
2023/10/05 07:00:11;;;;;;;3.3;2.3;;;;;;;12.12;87.43652;946.1959;;;;
2023/10/05 07:02:30;;;;;;;2.3;1.7;;;;;;;11.9;87.62207;946.1608;;;;
2023/10/05 07:04:56;;;;;;;3.6;2;;;;;;;11.94;88.25684;946.1239;;;;
2023/10/05 07:07:21;;;;;;;4.1;2.2;;;;;;;12;88.0293;946.1121;;;;
2023/10/05 07:09:49;;;;;;;3.5;2.3;;;;;;;12.05;88.24609;946.0894;;;;
2023/10/05 07:12:13;;;;;;;3.8;2.4;;;;;;;12.2;88.25293;946.0973;;;;
2023/10/05 07:14:40;;;;;;;2.7;2.2;;;;;;;12.22;87.46582;946.0683;;;;
2023/10/05 07:17:06;;;;;;;3.7;2.1;;;;;;;12.17;87.55957;946.108;;;;
2023/10/05 07:19:31;;;;;;;3.8;2.1;;;;;;;12.34;87.31934;946.1269;;;;
2023/10/05 07:21:56;;;;;;;3;1.9;;;;;;;12.36;86.6123;946.1248;;;;
2023/10/05 07:24:24;;;;;;;6.3;2;;;;;;;12.39;86.57324;946.1356;;;;
2023/10/05 07:26:49;;;;;;;3.2;2;;;;;;;12.51;86.91797;946.1928;;;;
2023/10/05 07:29:14;;;;;;;3;1.7;;;;;;;12.43;86.2002;946.1908;;;;
2023/10/05 07:31:39;;;;;;;5.2;1.9;;;;;;;12.49;86.55859;946.1902;;;;
2023/10/05 07:34:05;;;;;;;3.8;2;;;;;;;12.59;86.40625;946.202;;;;
2023/10/05 07:36:31;;;;;;;3.4;2.1;;;;;;;12.71;86.25977;946.2695;;;;
2023/10/05 07:38:57;;;;;;;3.1;1.7;;;;;;;12.76;85.84375;946.2918;;;;
2023/10/05 07:41:21;;;;;;;3.2;2;;;;;;;12.87;85.86523;946.1921;;;;
2023/10/05 07:43:48;;;;;;;3.4;2.3;;;;;;;12.99;86.2793;946.32;;;;
2023/10/05 07:46:13;;;;;;;3.6;2.3;;;;;;;13.28;85.8418;946.3661;;;;
2023/10/05 07:48:41;;;;;;;2.8;1.8;;;;;;;13.43;84.41113;946.3664;;;;
2023/10/05 07:51:06;;;;;;;4;2.5;;;;;;;13.39;84.25488;946.3417;;;;
2023/10/05 07:53:31;;;;;;;3.1;2;;;;;;;13.37;84.10352;946.4376;;;;
2023/10/05 07:55:57;;;;;;;4.4;1.8;;;;;;;13.29;84.56836;946.4637;;;;
2023/10/05 07:58:23;;;;;;;5.1;2.2;;;;;;;12.98;85.27832;946.3998;;;;
2023/10/05 08:00:48;;;;;;;3.9;2.3;;;;;;;13.02;86.21484;946.3326;;;;
2023/10/05 08:03:14;;;;;;;3.7;2.3;;;;;;;13.45;85.59961;946.2123;;;;
2023/10/05 08:05:39;;;;;;;5.8;2.3;;;;;;;13.82;83.59082;946.3329;;;;
2023/10/05 08:08:05;;;;;;;2.7;2.2;;;;;;;14.14;82.23535;946.3161;;;;
2023/10/05 08:10:31;;;;;;;3.3;2.1;;;;;;;14.44;81.15039;946.3081;;;;
2023/10/05 08:12:55;;;;;;;3.6;2.1;;;;;;;14.86;79.75391;946.2819;;;;
2023/10/05 08:15:23;;;;;;;3.6;2.2;;;;;;;15.27;77.00195;946.3303;;;;
2023/10/05 08:17:48;;;;;;;3.1;1.9;;;;;;;15.15;76.89844;946.3406;;;;
2023/10/05 08:20:17;;;;;;;3.6;2.1;;;;;;;15.18;76.21094;946.2974;;;;
2023/10/05 08:22:43;;;;;;;3.9;1.9;;;;;;;15.84;74.5918;946.3727;;;;
2023/10/05 08:25:12;;;;;;;4.5;2;;;;;;;16.3;74.18652;946.3658;;;;
2023/10/05 08:27:36;;;;;;;4.6;2.1;;;;;;;16.86;72.76172;946.3417;;;;
2023/10/05 08:30:01;;;;;;;3.7;2;;;;;;;16.67;68.01855;946.3248;;;;
2023/10/05 08:32:27;;;;;;;4.1;2.2;;;;;;;16.58;70.53906;946.301;;;;
2023/10/05 08:34:51;;;;;;;3.7;2.1;;;;;;;16.9;68.22754;946.3408;;;;
2023/10/05 08:37:19;;;;;;;3.3;1.8;;;;;;;16.8;69.39355;946.3672;;;;
2023/10/05 08:39:43;;;;;;;3.1;2.4;;;;;;;17.07;68.58887;946.3005;;;;
2023/10/05 08:42:12;;;;;;;3.3;2.2;;;;;;;17.14;68.64844;946.293;;;;
2023/10/05 08:44:38;;;;;;;2.8;1.9;;;;;;;17.26;69.58301;946.2261;;;;
2023/10/05 08:47:05;;;;;;;2.6;2.1;;;;;;;17.05;69.25879;946.183;;;;
2023/10/05 08:49:28;;;;;;;4.2;2.3;;;;;;;17.01;69.06836;946.1973;;;;
2023/10/05 08:51:56;;;;;;;4.7;3.1;;;;;;;17.19;69.22363;946.2269;;;;
2023/10/05 08:54:21;;;;;;;4.4;2.4;;;;;;;17.22;69.77441;946.1465;;;;
2023/10/05 08:56:47;;;;;;;4.1;2.3;;;;;;;17.38;68.8125;946.2144;;;;
2023/10/05 08:59:15;;;;;;;5.4;2;;;;;;;17.42;67.87891;946.1573;;;;
2023/10/05 09:03:38;;;;;;;3;2;;;;;;;17.85;67.55078;946.1948;;;;
2023/10/05 09:06:20;;;;;;;2.8;2.1;;;;;;;18.08;66.34277;946.204;;;;
2023/10/05 09:08:29;;;;;;;4.1;2.2;;;;;;;18.1;64.96387;946.1443;;;;
2023/10/05 09:10:55;;;;;;;3.5;2.1;;;;;;;18.01;65.9834;946.1237;;;;
2023/10/05 09:13:23;;;;;;;4.9;2.1;;;;;;;18.3;65.70215;946.2109;;;;
2023/10/05 09:15:46;;;;;;;3.5;2.1;;;;;;;18.51;63.58398;946.2231;;;;
2023/10/05 09:18:25;;;;;;;5.3;2.4;;;;;;;18.41;65.31152;946.1979;;;;
2023/10/05 09:20:36;;;;;;;3.1;2.2;;;;;;;18.24;66.14648;946.2081;;;;
2023/10/05 09:23:03;;;;;;;3.1;2;;;;;;;18.69;63.99219;946.2182;;;;
2023/10/05 09:25:28;;;;;;;3;2.3;;;;;;;19.14;62.91699;946.1683;;;;
2023/10/05 09:27:52;;;;;;;4.2;2;;;;;;;19.54;61.12109;946.0692;;;;
2023/10/05 09:30:20;;;;;;;3.9;1.9;;;;;;;19.44;59.37109;945.9877;;;;
2023/10/05 09:32:41;;;;;;;3.5;1.9;;;;;;;19.06;63.0332;946.0198;;;;
2023/10/05 09:35:10;;;;;;;2.1;1.8;;;;;;;18.64;64.74023;946.1614;;;;
2023/10/05 09:37:37;;;;;;;3.2;2;;;;;;;18.85;62.41016;946.1275;;;;
2023/10/05 09:40:03;;;;;;;3.4;2;;;;;;;19.16;63.60645;946.0922;;;;
2023/10/05 09:42:29;;;;;;;2.7;2;;;;;;;18.84;64.18945;946.0444;;;;
2023/10/05 09:44:53;;;;;;;4.5;2.1;;;;;;;18.84;66.35352;946.142;;;;
2023/10/05 09:47:21;;;;;;;3.9;2.2;;;;;;;18.38;67.02832;946.1111;;;;
2023/10/05 09:49:47;;;;;;;4.3;2.1;;;;;;;18.27;68.03418;946.2086;;;;
2023/10/05 09:52:12;;;;;;;3.2;2;;;;;;;17.98;68.41992;946.2068;;;;
2023/10/05 09:54:37;;;;;;;4.3;2.2;;;;;;;18.08;65.94727;946.117;;;;
2023/10/05 09:57:10;;;;;;;3.6;2.2;;;;;;;18.13;67.55859;946.0586;;;;
2023/10/05 09:59:31;;;;;;;4.4;2.3;;;;;;;18.14;67.53809;946.0472;;;;
2023/10/05 10:01:54;;;;;;;4;2;;;;;;;18.08;69.78223;946.0655;;;;
2023/10/05 10:04:34;;;;;;;3.4;2.1;;;;;;;18.11;67.9043;946.0878;;;;
2023/10/05 10:06:53;;;;;;;3.4;2;;;;;;;18.43;67.65137;946.0029;;;;
2023/10/05 10:09:10;;;;;;;3.4;2;;;;;;;18.25;67.56641;946.0081;;;;
2023/10/05 10:11:36;;;;;;;3;1.8;;;;;;;18.53;67.22559;946.006;;;;
2023/10/05 10:14:01;;;;;;;2.8;1.8;;;;;;;18.79;64.89063;946.0381;;;;
2023/10/05 10:16:28;;;;;;;3;2;;;;;;;18.75;65.35059;946.0587;;;;
2023/10/05 10:19:03;;;;;;;2.8;2.1;;;;;;;18.44;66.78027;946.0447;;;;
2023/10/05 10:21:20;;;;;;;3.3;2;;;;;;;18.21;67.99023;945.9871;;;;
2023/10/05 10:23:44;;;;;;;5.3;2.3;;;;;;;17.81;68.43945;945.8741;;;;
2023/10/05 10:26:16;;;;;;;3.3;2.5;;;;;;;18;72.02246;945.9352;;;;
2023/10/05 10:28:43;;;;;;;4.9;2.1;;;;;;;18.32;66.96191;945.884;;;;
2023/10/05 10:30:59;;;;;;;6.7;3;;;;;;;18.79;64.59961;945.8517;;;;
2023/10/05 10:33:30;;;;;;;2.9;2.1;;;;;;;18.89;64.69629;945.8453;;;;
2023/10/05 10:35:53;;;;;;;4.2;2.3;;;;;;;18.61;66.09766;945.8602;;;;
2023/10/05 10:38:20;;;;;;;3.5;2.2;;;;;;;18.84;65.55078;945.8451;;;;
2023/10/05 10:40:53;;;;;;;3.2;2.3;;;;;;;19.13;65.10449;945.8447;;;;
2023/10/05 10:43:13;;;;;;;4;2.2;;;;;;;19.34;63.77246;945.7868;;;;
2023/10/05 10:45:40;;;;;;;4.2;2.2;;;;;;;19.42;64.19141;945.8698;;;;
2023/10/05 10:48:00;;;;;;;5.5;1.9;;;;;;;19.57;63.94629;945.8289;;;;
2023/10/05 10:50:29;;;;;;;3.4;2.2;;;;;;;19.45;63.91602;945.7971;;;;
2023/10/05 10:52:53;;;;;;;3.6;1.9;;;;;;;19.83;63.71582;945.787;;;;
2023/10/05 10:55:20;;;;;;;3.5;2.1;;;;;;;20.06;60.3877;945.7161;;;;
2023/10/05 10:57:46;;;;;;;3.4;2;;;;;;;20.3;59.63867;945.7231;;;;
2023/10/05 11:02:39;;;;;;;3.7;2;;;;;;;20.37;61.86523;945.6662;;;;
2023/10/05 11:05:14;;;;;;;3.6;1.9;;;;;;;20.79;59.42383;945.6623;;;;
2023/10/05 11:07:39;;;;;;;4.7;2.4;;;;;;;20.45;61.86426;945.6412;;;;
2023/10/05 11:10:04;;;;;;;3.8;1.9;;;;;;;20.94;61.34863;945.5958;;;;
2023/10/05 11:12:26;;;;;;;5;2.3;;;;;;;21.4;58.21875;945.5698;;;;
2023/10/05 11:14:56;;;;;;;4;2.3;;;;;;;21.61;59.24121;945.5162;;;;
2023/10/05 11:17:16;;;;;;;3.2;2.2;;;;;;;21.62;59.28809;945.4666;;;;
2023/10/05 11:19:42;;;;;;;4.4;2.4;;;;;;;21.44;58.85449;945.4478;;;;
2023/10/05 11:22:11;;;;;;;3.2;2.2;;;;;;;22.26;55.375;945.3398;;;;
2023/10/05 11:24:32;;;;;;;4.2;2.5;;;;;;;22.11;57.33887;945.3089;;;;
2023/10/05 11:27:05;;;;;;;4.2;2.2;;;;;;;23.44;52.04297;945.2801;;;;
2023/10/05 11:29:28;;;;;;;4.6;2.1;;;;;;;23.66;51.51465;945.1736;;;;
2023/10/05 11:31:51;;;;;;;4.8;2.4;;;;;;;24.25;50.49902;945.1429;;;;
2023/10/05 11:34:19;;;;;;;4.4;2.3;;;;;;;25.45;47.33984;945.0862;;;;
2023/10/05 11:36:44;;;;;;;3.7;2.3;;;;;;;25.03;48.92383;945.1164;;;;
2023/10/05 11:39:20;;;;;;;3.8;2.3;;;;;;;25.12;47.70703;944.9761;;;;
2023/10/05 11:41:33;;;;;;;2.9;2.2;;;;;;;23.77;53.65625;945.0246;;;;
2023/10/05 11:43:58;;;;;;;4.2;2.2;;;;;;;24.03;52.52344;944.9656;;;;
2023/10/05 11:46:29;;;;;;;3.7;2.3;;;;;;;26.44;45.19629;944.9944;;;;
2023/10/05 11:48:51;;;;;;;3.3;1.8;;;;;;;28.41;42.19629;944.9341;;;;
2023/10/05 11:51:13;;;;;;;3.2;2.1;;;;;;;25.73;46.81348;944.909;;;;
2023/10/05 11:53:39;;;;;;;3.9;2.4;;;;;;;26.29;46.28223;944.9208;;;;
2023/10/05 11:56:04;;;;;;;3.7;2;;;;;;;26.95;44.18164;944.9169;;;;
2023/10/05 11:58:32;;;;;;;3.2;2;;;;;;;29.45;39.64746;944.8318;;;;
2023/10/05 12:01:03;;;;;;;6;2.3;;;;;;;30.15;37.6084;944.8551;;;;
2023/10/05 12:03:26;;;;;;;4.9;2.2;;;;;;;28.96;39.83008;944.8763;;;;
2023/10/05 12:05:47;;;;;;;7.6;2.4;;;;;;;29.37;39.43848;944.9258;;;;
2023/10/05 12:08:16;;;;;;;4.1;2;;;;;;;29.99;38.93164;944.9783;;;;
2023/10/05 12:10:39;;;;;;;3.4;2.2;;;;;;;30.28;37.49902;945.0076;;;;
2023/10/05 12:13:04;;;;;;;3.2;2.1;;;;;;;30.41;36.75781;945.0234;;;;
2023/10/05 12:15:31;;;;;;;4;2.3;;;;;;;27.64;41.80273;944.9829;;;;
2023/10/05 12:17:56;;;;;;;4;2.4;;;;;;;25.4;47.7832;945.0038;;;;
2023/10/05 12:20:21;;;;;;;3.7;2.4;;;;;;;26.36;45.0332;945.0646;;;;
2023/10/05 12:22:49;;;;;;;3.4;2.3;;;;;;;26.78;44.49609;945.0417;;;;
2023/10/05 12:25:15;;;;;;;3.3;2.1;;;;;;;28.39;40.77832;945.0275;;;;
2023/10/05 12:27:37;;;;;;;3.5;2.2;;;;;;;27.44;43.45801;945.0206;;;;
2023/10/05 12:30:10;;;;;;;2.9;2;;;;;;;27.94;42.25879;945.0842;;;;
2023/10/05 12:32:29;;;;;;;4.5;2.1;;;;;;;29.19;39.64941;944.9914;;;;
2023/10/05 12:34:59;;;;;;;3.2;2.1;;;;;;;26.49;46.62109;945.1486;;;;
2023/10/05 12:37:23;;;;;;;2.8;1.9;;;;;;;28.87;39.01367;945.0652;;;;
2023/10/05 12:39:49;;;;;;;5;2.4;;;;;;;30.54;37.49805;945.1063;;;;
2023/10/05 12:42:15;;;;;;;3.9;2.3;;;;;;;28.4;41.11328;945.1172;;;;
2023/10/05 12:44:40;;;;;;;3;2;;;;;;;28.14;41.70703;945.1242;;;;
2023/10/05 12:47:07;;;;;;;3.3;2.1;;;;;;;27.36;43.79395;945.1082;;;;
2023/10/05 12:49:33;;;;;;;3.1;2;;;;;;;27.1;43.96973;945.1294;;;;
2023/10/05 12:51:56;;;;;;;2.8;2;;;;;;;26.83;43.63574;945.1265;;;;
2023/10/05 12:54:28;;;;;;;3.7;2.4;;;;;;;24.73;49.32715;945.139;;;;
2023/10/05 12:56:45;;;;;;;3.7;1.9;;;;;;;25.3;47.12402;945.1011;;;;
2023/10/05 12:59:10;;;;;;;4.2;2.1;;;;;;;25.21;47.44434;945.0886;;;;
2023/10/05 13:01:41;;;;;;;3.7;2.1;;;;;;;24.49;48.62988;945.1478;;;;
2023/10/05 13:04:05;;;;;;;4;2.4;;;;;;;23.8;50.35547;945.1602;;;;
2023/10/05 13:06:27;;;;;;;4.1;2.3;;;;;;;23.42;50.74609;945.1863;;;;
2023/10/05 13:08:56;;;;;;;4.2;2.4;;;;;;;22.86;52.58496;945.1859;;;;
2023/10/05 13:11:18;;;;;;;3.7;2.1;;;;;;;22.34;54.07227;945.2159;;;;
2023/10/05 13:13:44;;;;;;;4.2;2.4;;;;;;;22.46;54.63672;945.2798;;;;
2023/10/05 13:16:21;;;;;;;4.3;2.2;;;;;;;22.38;54.14746;945.3188;;;;
2023/10/05 13:18:35;;;;;;;2.9;2.1;;;;;;;22.16;54.88184;945.2713;;;;
2023/10/05 13:21:01;;;;;;;3.6;2.2;;;;;;;21.81;56.42188;945.2534;;;;
2023/10/05 13:23:30;;;;;;;4.8;2.7;;;;;;;21.48;56.94141;945.3326;;;;
2023/10/05 13:25:52;;;;;;;3.6;2.5;;;;;;;20.95;59.43359;945.287;;;;
2023/10/05 13:28:18;;;;;;;4;2.3;;;;;;;21.02;60.33105;945.3758;;;;
2023/10/05 13:30:46;;;;;;;4.1;2.4;;;;;;;20.99;59.24023;945.4847;;;;
2023/10/05 13:33:13;;;;;;;3.2;2.3;;;;;;;20.72;60.38379;945.5469;;;;
2023/10/05 13:35:35;;;;;;;3.7;2.4;;;;;;;20.79;61.42285;945.6234;;;;
2023/10/05 13:38:06;;;;;;;4.1;2.1;;;;;;;20.66;62.01172;945.6096;;;;
2023/10/05 13:40:34;;;;;;;4.6;2.4;;;;;;;20.38;62.2168;945.6726;;;;
2023/10/05 13:42:52;;;;;;;4.5;2.6;;;;;;;20.14;62.20605;945.5831;;;;
2023/10/05 13:45:20;;;;;;;5.3;2.6;;;;;;;19.97;63.77051;945.6169;;;;
2023/10/05 13:47:45;;;;;;;3.9;2.4;;;;;;;19.87;63.79199;945.6595;;;;
2023/10/05 13:50:12;;;;;;;4.6;2.6;;;;;;;19.87;63.35938;945.6426;;;;
2023/10/05 13:52:38;;;;;;;4;2.5;;;;;;;19.84;63.51855;945.6592;;;;
2023/10/05 13:55:04;;;;;;;5.6;2.3;;;;;;;19.79;63.32422;945.7106;;;;
2023/10/05 13:57:29;;;;;;;5.5;2.4;;;;;;;19.59;63.85645;945.7744;;;;
2023/10/05 13:59:54;;;;;;;3.5;2.6;;;;;;;19.55;63.82715;945.8033;;;;
2023/10/05 14:02:21;;;;;;;2.9;2.3;;;;;;;19.34;64.85645;945.7439;;;;
2023/10/05 14:04:46;;;;;;;4.2;2.4;;;;;;;19.15;65.35156;945.8323;;;;
2023/10/05 14:07:13;;;;;;;4.7;2.5;;;;;;;19.06;66.08301;945.8027;;;;
2023/10/05 14:09:43;;;;;;;4.4;2.7;;;;;;;19.09;65.57617;945.8192;;;;
2023/10/05 14:12:03;;;;;;;5;2.6;;;;;;;19.12;65.53418;945.8544;;;;
2023/10/05 14:14:28;;;;;;;4;3.1;;;;;;;19.16;66.00488;945.9153;;;;
2023/10/05 14:16:54;;;;;;;4.5;3.1;;;;;;;19.08;67.00781;945.9752;;;;
2023/10/05 14:19:22;;;;;;;4.2;2.8;;;;;;;19.14;66.18848;945.9398;;;;
2023/10/05 14:21:45;;;;;;;4.8;2.8;;;;;;;19.06;66.16504;945.931;;;;
2023/10/05 14:24:17;;;;;;;6.7;3;;;;;;;18.99;66.53809;945.9186;;;;
2023/10/05 14:26:38;;;;;;;4.8;2.7;;;;;;;19.07;66.31738;945.9285;;;;
2023/10/05 14:29:06;;;;;;;4.9;3.2;;;;;;;18.95;66.73047;945.9634;;;;
2023/10/05 14:31:29;;;;;;;5.3;3;;;;;;;19.02;66.55566;945.9589;;;;
2023/10/05 14:33:54;;;;;;;6.4;3.2;;;;;;;19.03;66.75488;945.9604;;;;
2023/10/05 14:36:20;;;;;;;3.8;2.9;;;;;;;19;66.9707;945.9169;;;;
2023/10/05 14:38:47;;;;;;;4.7;2.9;;;;;;;19;66.70215;945.9289;;;;
2023/10/05 14:41:13;;;;;;;5.5;3.1;;;;;;;18.97;67.28223;945.9777;;;;
2023/10/05 14:43:44;;;;;;;4.3;2.8;;;;;;;18.98;67.56152;946.0333;;;;
2023/10/05 14:46:05;;;;;;;5.1;3;;;;;;;18.93;67.05371;945.9797;;;;
2023/10/05 14:48:36;;;;;;;4.8;2.9;;;;;;;18.91;66.96973;945.9961;;;;
2023/10/05 14:50:57;;;;;;;4.6;2.9;;;;;;;18.86;67.78809;946.0427;;;;
2023/10/05 14:53:24;;;;;;;6.2;3;;;;;;;18.82;68.1416;946.0443;;;;
2023/10/05 14:55:47;;;;;;;4.4;3;;;;;;;18.86;68.67188;946.0435;;;;
2023/10/05 14:58:13;;;;;;;4.7;2.8;;;;;;;18.83;69.15625;946.0728;;;;
2023/10/05 15:00:37;;;;;;;5.9;2.9;;;;;;;18.75;69.37695;946.1306;;;;
2023/10/05 15:03:04;;;;;;;3.9;2.6;;;;;;;18.64;70.20703;946.0993;;;;
2023/10/05 15:05:29;;;;;;;5.9;2.7;;;;;;;18.63;70.64941;946.0477;;;;
2023/10/05 15:07:58;;;;;;;4.5;2.9;;;;;;;18.64;70.70898;946.0105;;;;
2023/10/05 15:10:21;;;;;;;4.7;2.9;;;;;;;18.76;70.07617;945.9796;;;;
2023/10/05 15:12:45;;;;;;;5.6;2.8;;;;;;;18.81;69.52637;946.0008;;;;
2023/10/05 15:15:11;;;;;;;7.1;3.2;;;;;;;18.83;68.56348;945.9775;;;;
2023/10/05 15:17:40;;;;;;;5.4;2.4;;;;;;;18.85;68.20508;945.9531;;;;
2023/10/05 15:20:10;;;;;;;6.7;2.7;;;;;;;18.92;67.68066;945.9314;;;;
2023/10/05 15:22:30;;;;;;;3.3;2.4;;;;;;;18.86;67.49707;945.8869;;;;
2023/10/05 15:24:55;;;;;;;4.1;2.8;;;;;;;18.73;68.52441;945.8644;;;;
2023/10/05 15:27:20;;;;;;;4.8;2.8;;;;;;;18.68;68.22656;945.8286;;;;
2023/10/05 15:29:48;;;;;;;5.3;3;;;;;;;18.66;68.19922;945.8272;;;;
2023/10/05 15:32:12;;;;;;;4.1;2.7;;;;;;;18.63;68.74121;945.7823;;;;
2023/10/05 15:34:40;;;;;;;5.8;2.8;;;;;;;18.56;68.88184;945.7557;;;;
2023/10/05 15:37:06;;;;;;;5.4;2.7;;;;;;;18.44;69.40918;945.7141;;;;
2023/10/05 15:39:30;;;;;;;6.3;3.3;;;;;;;18.38;69.69043;945.7545;;;;